This is the latest recevied weather packets stored in our database for station/object CE1RLP-31. If no packets are shown the sender has not sent any weather packets the latest 10 day(s).
| Time | Temp. | Humidity | Pressure | Rain* | Wind** | Luminosity | Snow |
|---|---|---|---|---|---|---|---|
| 1777368147 | 2.78° C | 26% | 1098 hPa | - | - | - | - |
| 1777367247 | 2.78° C | 26% | 1098 hPa | - | - | - | - |
| 1777366347 | 2.78° C | 25% | 1097.9 hPa | - | - | - | - |
| 1777365447 | 2.22° C | 25% | 1098.1 hPa | - | - | - | - |
| 1777364547 | 2.22° C | 26% | 1097.9 hPa | - | - | - | - |
| 1777363648 | 2.22° C | 25% | 1097.9 hPa | - | - | - | - |
| 1777362747 | -2.22° C | 25% | 1093.1 hPa | - | - | - | - |
| 1777361847 | 2.78° C | 22% | 1098 hPa | - | - | - | - |
| 1777360946 | -7.22° C | 23% | 1087.6 hPa | - | - | - | - |
| 1777360046 | 2.78° C | 23% | 1099.3 hPa | - | - | - | - |
| 1777359146 | 2.78° C | 21% | 1098.2 hPa | - | - | - | - |
| 1777358246 | 3.33° C | 21% | 1098.2 hPa | - | - | - | - |
| 1777357346 | 3.33° C | 21% | 1098.3 hPa | - | - | - | - |
| 1777356446 | 3.33° C | 20% | 1098.3 hPa | - | - | - | - |
| 1777355546 | 3.33° C | 20% | 1098.3 hPa | - | - | - | - |
| 1777354646 | 3.33° C | 20% | 1098.4 hPa | - | - | - | - |
| 1777353746 | 3.89° C | 20% | 1098.6 hPa | - | - | - | - |
| 1777352846 | 3.89° C | 19% | 1098.7 hPa | - | - | - | - |
| 1777351946 | 3.89° C | 19% | 1098.8 hPa | - | - | - | - |
| 1777351045 | 4.44° C | 19% | 1098.9 hPa | - | - | - | - |
| 1777350145 | 4.44° C | 18% | 1098.9 hPa | - | - | - | - |
| 1777349245 | 4.44° C | 19% | 1099.1 hPa | - | - | - | - |
| 1777348347 | 4.44° C | 18% | 1099 hPa | - | - | - | - |
| 1777347447 | 5° C | 17% | 1099.2 hPa | - | - | - | - |
| 1777346547 | 5° C | 17% | 1099.2 hPa | - | - | - | - |
* Rain since midnight (hover to see other rain measurements)
** Current wind speed in m/s (hover to see current wind gust speed)